sensor_id;sensor_type;location;lat;lon;timestamp;temperature;humidity
13409;DHT22;6775;49.574;11.170;2023-06-26T00:00:39;17.20;99.90
13409;DHT22;6775;49.574;11.170;2023-06-26T00:03:07;17.10;99.90
13409;DHT22;6775;49.574;11.170;2023-06-26T00:05:36;17.00;99.90
13409;DHT22;6775;49.574;11.170;2023-06-26T00:08:04;16.90;99.90
13409;DHT22;6775;49.574;11.170;2023-06-26T00:10:32;16.90;99.90
13409;DHT22;6775;49.574;11.170;2023-06-26T00:13:00;16.80;99.90
13409;DHT22;6775;49.574;11.170;2023-06-26T00:15:28;16.80;99.90
13409;DHT22;6775;49.574;11.170;2023-06-26T00:17:58;16.80;99.90
13409;DHT22;6775;49.574;11.170;2023-06-26T00:20:26;16.70;99.90
13409;DHT22;6775;49.574;11.170;2023-06-26T00:22:55;16.60;99.90
13409;DHT22;6775;49.574;11.170;2023-06-26T00:25:25;16.50;99.90
13409;DHT22;6775;49.574;11.170;2023-06-26T00:27:53;16.50;99.90
13409;DHT22;6775;49.574;11.170;2023-06-26T00:30:21;16.40;99.90
13409;DHT22;6775;49.574;11.170;2023-06-26T00:32:48;16.30;99.90
13409;DHT22;6775;49.574;11.170;2023-06-26T00:35:17;16.30;99.90
13409;DHT22;6775;49.574;11.170;2023-06-26T00:37:45;16.30;99.90
13409;DHT22;6775;49.574;11.170;2023-06-26T00:40:15;16.30;99.90
13409;DHT22;6775;49.574;11.170;2023-06-26T00:42:43;16.30;99.90
13409;DHT22;6775;49.574;11.170;2023-06-26T00:45:11;16.40;99.90
13409;DHT22;6775;49.574;11.170;2023-06-26T00:47:39;16.40;99.90
13409;DHT22;6775;49.574;11.170;2023-06-26T00:50:07;16.50;99.90
13409;DHT22;6775;49.574;11.170;2023-06-26T00:52:36;16.40;99.90
13409;DHT22;6775;49.574;11.170;2023-06-26T00:55:05;16.30;99.90
13409;DHT22;6775;49.574;11.170;2023-06-26T00:57:34;16.10;99.90
13409;DHT22;6775;49.574;11.170;2023-06-26T01:00:02;15.90;99.90
13409;DHT22;6775;49.574;11.170;2023-06-26T01:02:32;15.80;99.90
13409;DHT22;6775;49.574;11.170;2023-06-26T01:05:01;15.70;99.90
13409;DHT22;6775;49.574;11.170;2023-06-26T01:07:33;15.60;99.90
13409;DHT22;6775;49.574;11.170;2023-06-26T01:10:03;15.60;99.90
13409;DHT22;6775;49.574;11.170;2023-06-26T01:12:31;15.60;99.90
13409;DHT22;6775;49.574;11.170;2023-06-26T01:15:01;15.60;99.90
13409;DHT22;6775;49.574;11.170;2023-06-26T01:17:31;15.70;99.90
13409;DHT22;6775;49.574;11.170;2023-06-26T01:19:59;15.70;99.90
13409;DHT22;6775;49.574;11.170;2023-06-26T01:22:38;15.80;99.90
13409;DHT22;6775;49.574;11.170;2023-06-26T01:25:15;15.80;99.90
13409;DHT22;6775;49.574;11.170;2023-06-26T01:27:48;15.80;99.90
13409;DHT22;6775;49.574;11.170;2023-06-26T01:30:18;15.90;99.90
13409;DHT22;6775;49.574;11.170;2023-06-26T01:32:47;15.90;99.90
13409;DHT22;6775;49.574;11.170;2023-06-26T01:35:15;15.90;99.90
13409;DHT22;6775;49.574;11.170;2023-06-26T01:37:43;15.80;99.90
13409;DHT22;6775;49.574;11.170;2023-06-26T01:40:11;15.80;99.90
13409;DHT22;6775;49.574;11.170;2023-06-26T01:42:39;15.80;99.90
13409;DHT22;6775;49.574;11.170;2023-06-26T01:45:14;15.80;99.90
13409;DHT22;6775;49.574;11.170;2023-06-26T01:47:47;15.70;99.90
13409;DHT22;6775;49.574;11.170;2023-06-26T01:50:18;15.70;99.90
13409;DHT22;6775;49.574;11.170;2023-06-26T01:52:56;15.60;99.90
13409;DHT22;6775;49.574;11.170;2023-06-26T01:55:32;15.60;99.90
13409;DHT22;6775;49.574;11.170;2023-06-26T01:58:03;15.50;99.90
13409;DHT22;6775;49.574;11.170;2023-06-26T02:00:32;15.30;99.90
13409;DHT22;6775;49.574;11.170;2023-06-26T02:03:00;15.30;99.90
13409;DHT22;6775;49.574;11.170;2023-06-26T02:05:29;15.30;99.90
13409;DHT22;6775;49.574;11.170;2023-06-26T02:07:57;15.20;99.90
13409;DHT22;6775;49.574;11.170;2023-06-26T02:10:27;15.20;99.90
13409;DHT22;6775;49.574;11.170;2023-06-26T02:12:55;15.20;99.90
13409;DHT22;6775;49.574;11.170;2023-06-26T02:15:23;15.20;99.90
13409;DHT22;6775;49.574;11.170;2023-06-26T02:17:52;15.20;99.90
13409;DHT22;6775;49.574;11.170;2023-06-26T02:20:20;15.20;99.90
13409;DHT22;6775;49.574;11.170;2023-06-26T02:22:48;15.30;99.90
13409;DHT22;6775;49.574;11.170;2023-06-26T02:25:17;15.20;99.90
13409;DHT22;6775;49.574;11.170;2023-06-26T02:27:45;15.10;99.90
13409;DHT22;6775;49.574;11.170;2023-06-26T02:30:12;15.10;99.90
13409;DHT22;6775;49.574;11.170;2023-06-26T02:32:40;15.10;99.90
13409;DHT22;6775;49.574;11.170;2023-06-26T02:35:10;15.10;99.90
13409;DHT22;6775;49.574;11.170;2023-06-26T02:37:37;15.10;99.90
13409;DHT22;6775;49.574;11.170;2023-06-26T02:40:06;15.10;99.90
13409;DHT22;6775;49.574;11.170;2023-06-26T02:42:36;15.10;99.90
13409;DHT22;6775;49.574;11.170;2023-06-26T02:45:05;15.00;99.90
13409;DHT22;6775;49.574;11.170;2023-06-26T02:47:33;15.00;99.90
13409;DHT22;6775;49.574;11.170;2023-06-26T02:50:01;15.00;99.90
13409;DHT22;6775;49.574;11.170;2023-06-26T02:52:30;15.00;99.90
13409;DHT22;6775;49.574;11.170;2023-06-26T02:54:58;14.90;99.90
13409;DHT22;6775;49.574;11.170;2023-06-26T02:57:26;14.90;99.90
13409;DHT22;6775;49.574;11.170;2023-06-26T02:59:54;15.00;99.90
13409;DHT22;6775;49.574;11.170;2023-06-26T03:02:21;14.90;99.90
13409;DHT22;6775;49.574;11.170;2023-06-26T03:04:49;14.90;99.90
13409;DHT22;6775;49.574;11.170;2023-06-26T03:07:18;14.90;99.90
13409;DHT22;6775;49.574;11.170;2023-06-26T03:09:47;14.80;99.90
13409;DHT22;6775;49.574;11.170;2023-06-26T03:12:15;14.70;99.90
13409;DHT22;6775;49.574;11.170;2023-06-26T03:14:42;14.70;99.90
13409;DHT22;6775;49.574;11.170;2023-06-26T03:17:13;14.70;99.90
13409;DHT22;6775;49.574;11.170;2023-06-26T03:19:41;14.60;99.90
13409;DHT22;6775;49.574;11.170;2023-06-26T03:22:09;14.50;99.90
13409;DHT22;6775;49.574;11.170;2023-06-26T03:24:37;14.50;99.90
13409;DHT22;6775;49.574;11.170;2023-06-26T03:27:06;14.50;99.90
13409;DHT22;6775;49.574;11.170;2023-06-26T03:29:36;14.40;99.90
13409;DHT22;6775;49.574;11.170;2023-06-26T03:32:04;14.40;99.90
13409;DHT22;6775;49.574;11.170;2023-06-26T03:34:32;14.30;99.90
13409;DHT22;6775;49.574;11.170;2023-06-26T03:37:00;14.40;99.90
13409;DHT22;6775;49.574;11.170;2023-06-26T03:39:28;14.40;99.90
13409;DHT22;6775;49.574;11.170;2023-06-26T03:41:56;14.40;99.90
13409;DHT22;6775;49.574;11.170;2023-06-26T03:44:28;14.40;99.90
13409;DHT22;6775;49.574;11.170;2023-06-26T03:46:56;14.40;99.90
13409;DHT22;6775;49.574;11.170;2023-06-26T03:49:23;14.60;99.90
13409;DHT22;6775;49.574;11.170;2023-06-26T03:51:51;14.40;99.90
13409;DHT22;6775;49.574;11.170;2023-06-26T03:54:19;14.50;99.90
13409;DHT22;6775;49.574;11.170;2023-06-26T03:56:47;14.70;99.90
13409;DHT22;6775;49.574;11.170;2023-06-26T03:59:15;14.60;99.90
13409;DHT22;6775;49.574;11.170;2023-06-26T04:01:44;14.80;99.90
13409;DHT22;6775;49.574;11.170;2023-06-26T04:04:12;14.80;99.90
13409;DHT22;6775;49.574;11.170;2023-06-26T04:06:40;14.90;99.90
13409;DHT22;6775;49.574;11.170;2023-06-26T04:09:08;15.00;99.90
13409;DHT22;6775;49.574;11.170;2023-06-26T04:11:35;15.10;99.90
13409;DHT22;6775;49.574;11.170;2023-06-26T04:14:03;15.20;99.90
13409;DHT22;6775;49.574;11.170;2023-06-26T04:16:31;15.10;99.90
13409;DHT22;6775;49.574;11.170;2023-06-26T04:19:00;15.20;99.90
13409;DHT22;6775;49.574;11.170;2023-06-26T04:21:29;15.40;99.90
13409;DHT22;6775;49.574;11.170;2023-06-26T04:23:57;15.40;99.90
13409;DHT22;6775;49.574;11.170;2023-06-26T04:26:24;15.40;99.90
13409;DHT22;6775;49.574;11.170;2023-06-26T04:28:54;15.60;99.90
13409;DHT22;6775;49.574;11.170;2023-06-26T04:31:22;15.70;99.90
13409;DHT22;6775;49.574;11.170;2023-06-26T04:33:50;15.80;99.90
13409;DHT22;6775;49.574;11.170;2023-06-26T04:36:22;16.00;99.90
13409;DHT22;6775;49.574;11.170;2023-06-26T04:38:55;16.10;99.90
13409;DHT22;6775;49.574;11.170;2023-06-26T04:41:23;16.20;99.90
13409;DHT22;6775;49.574;11.170;2023-06-26T04:43:50;16.40;99.90
13409;DHT22;6775;49.574;11.170;2023-06-26T04:46:18;16.50;99.90
13409;DHT22;6775;49.574;11.170;2023-06-26T04:48:46;16.60;99.90
13409;DHT22;6775;49.574;11.170;2023-06-26T04:51:14;16.70;99.90
13409;DHT22;6775;49.574;11.170;2023-06-26T04:53:43;16.80;99.90
13409;DHT22;6775;49.574;11.170;2023-06-26T04:56:11;16.90;99.90
13409;DHT22;6775;49.574;11.170;2023-06-26T04:58:39;17.10;99.90
13409;DHT22;6775;49.574;11.170;2023-06-26T05:01:07;17.20;99.90
13409;DHT22;6775;49.574;11.170;2023-06-26T05:03:35;17.30;99.90
13409;DHT22;6775;49.574;11.170;2023-06-26T05:06:04;17.40;99.90
13409;DHT22;6775;49.574;11.170;2023-06-26T05:08:35;17.50;99.90
13409;DHT22;6775;49.574;11.170;2023-06-26T05:11:04;17.60;99.90
13409;DHT22;6775;49.574;11.170;2023-06-26T05:13:32;17.70;99.90
13409;DHT22;6775;49.574;11.170;2023-06-26T05:16:00;17.80;99.90
13409;DHT22;6775;49.574;11.170;2023-06-26T05:18:28;17.90;99.90
13409;DHT22;6775;49.574;11.170;2023-06-26T05:20:56;18.00;99.90
13409;DHT22;6775;49.574;11.170;2023-06-26T05:23:25;18.10;99.90
13409;DHT22;6775;49.574;11.170;2023-06-26T05:25:53;18.30;99.90
13409;DHT22;6775;49.574;11.170;2023-06-26T05:28:27;18.30;99.90
13409;DHT22;6775;49.574;11.170;2023-06-26T05:30:58;18.40;99.90
13409;DHT22;6775;49.574;11.170;2023-06-26T05:33:27;18.50;99.90
13409;DHT22;6775;49.574;11.170;2023-06-26T05:35:55;18.60;99.90
13409;DHT22;6775;49.574;11.170;2023-06-26T05:38:24;18.70;99.90
13409;DHT22;6775;49.574;11.170;2023-06-26T05:40:52;18.80;99.90
13409;DHT22;6775;49.574;11.170;2023-06-26T05:43:20;18.90;99.90
13409;DHT22;6775;49.574;11.170;2023-06-26T05:45:56;19.00;99.90
13409;DHT22;6775;49.574;11.170;2023-06-26T05:48:24;19.10;99.90
13409;DHT22;6775;49.574;11.170;2023-06-26T05:50:52;19.30;99.90
13409;DHT22;6775;49.574;11.170;2023-06-26T05:53:20;19.40;99.90
13409;DHT22;6775;49.574;11.170;2023-06-26T05:55:49;19.60;99.90
13409;DHT22;6775;49.574;11.170;2023-06-26T05:58:18;19.70;99.90
13409;DHT22;6775;49.574;11.170;2023-06-26T06:00:47;19.80;99.90
13409;DHT22;6775;49.574;11.170;2023-06-26T06:03:16;19.90;99.90
13409;DHT22;6775;49.574;11.170;2023-06-26T06:05:44;20.10;99.90
13409;DHT22;6775;49.574;11.170;2023-06-26T06:08:12;20.20;99.90
13409;DHT22;6775;49.574;11.170;2023-06-26T06:10:39;20.40;99.90
13409;DHT22;6775;49.574;11.170;2023-06-26T06:13:08;20.50;99.90
13409;DHT22;6775;49.574;11.170;2023-06-26T06:15:35;20.60;99.90
13409;DHT22;6775;49.574;11.170;2023-06-26T06:18:03;20.80;99.90
13409;DHT22;6775;49.574;11.170;2023-06-26T06:20:33;20.90;99.90
13409;DHT22;6775;49.574;11.170;2023-06-26T06:23:00;21.00;99.90
13409;DHT22;6775;49.574;11.170;2023-06-26T06:25:28;21.20;99.90
13409;DHT22;6775;49.574;11.170;2023-06-26T06:27:56;21.30;99.90
13409;DHT22;6775;49.574;11.170;2023-06-26T06:30:24;21.50;99.90
13409;DHT22;6775;49.574;11.170;2023-06-26T06:33:09;21.60;99.90
13409;DHT22;6775;49.574;11.170;2023-06-26T06:35:38;21.80;99.90
13409;DHT22;6775;49.574;11.170;2023-06-26T06:38:06;21.90;99.90
13409;DHT22;6775;49.574;11.170;2023-06-26T06:40:34;22.10;99.90
13409;DHT22;6775;49.574;11.170;2023-06-26T06:43:02;22.20;99.90
13409;DHT22;6775;49.574;11.170;2023-06-26T06:45:30;22.20;99.90
13409;DHT22;6775;49.574;11.170;2023-06-26T06:47:58;22.30;99.90
13409;DHT22;6775;49.574;11.170;2023-06-26T06:50:26;22.40;99.90
13409;DHT22;6775;49.574;11.170;2023-06-26T06:52:56;22.50;99.90
13409;DHT22;6775;49.574;11.170;2023-06-26T06:55:24;22.60;99.90
13409;DHT22;6775;49.574;11.170;2023-06-26T06:57:52;22.70;99.10
13409;DHT22;6775;49.574;11.170;2023-06-26T07:00:20;22.90;99.00
13409;DHT22;6775;49.574;11.170;2023-06-26T07:02:48;22.90;98.10
13409;DHT22;6775;49.574;11.170;2023-06-26T07:05:16;23.10;97.80
13409;DHT22;6775;49.574;11.170;2023-06-26T07:07:44;23.30;98.10
13409;DHT22;6775;49.574;11.170;2023-06-26T07:10:14;23.40;97.60
13409;DHT22;6775;49.574;11.170;2023-06-26T07:12:41;23.60;96.50
13409;DHT22;6775;49.574;11.170;2023-06-26T07:15:10;23.70;96.10
13409;DHT22;6775;49.574;11.170;2023-06-26T07:17:38;23.80;95.70
13409;DHT22;6775;49.574;11.170;2023-06-26T07:20:06;24.00;94.90
13409;DHT22;6775;49.574;11.170;2023-06-26T07:22:36;24.10;94.50
13409;DHT22;6775;49.574;11.170;2023-06-26T07:25:04;24.30;93.10
13409;DHT22;6775;49.574;11.170;2023-06-26T07:27:37;24.40;92.20
13409;DHT22;6775;49.574;11.170;2023-06-26T07:30:06;24.50;92.00
13409;DHT22;6775;49.574;11.170;2023-06-26T07:32:35;24.60;91.80
13409;DHT22;6775;49.574;11.170;2023-06-26T07:35:04;24.70;91.60
13409;DHT22;6775;49.574;11.170;2023-06-26T07:37:32;24.80;90.20
13409;DHT22;6775;49.574;11.170;2023-06-26T07:40:00;24.80;90.70
13409;DHT22;6775;49.574;11.170;2023-06-26T07:42:28;25.00;90.50
13409;DHT22;6775;49.574;11.170;2023-06-26T07:44:58;25.00;89.60
13409;DHT22;6775;49.574;11.170;2023-06-26T07:47:25;25.20;89.40
13409;DHT22;6775;49.574;11.170;2023-06-26T07:49:53;25.30;88.20
13409;DHT22;6775;49.574;11.170;2023-06-26T07:52:21;25.40;89.00
13409;DHT22;6775;49.574;11.170;2023-06-26T07:54:49;25.50;88.90
13409;DHT22;6775;49.574;11.170;2023-06-26T07:57:17;25.60;87.70
13409;DHT22;6775;49.574;11.170;2023-06-26T07:59:45;25.80;87.40
13409;DHT22;6775;49.574;11.170;2023-06-26T08:02:14;25.90;87.70
13409;DHT22;6775;49.574;11.170;2023-06-26T08:04:44;26.10;87.30
13409;DHT22;6775;49.574;11.170;2023-06-26T08:07:12;26.30;85.70
13409;DHT22;6775;49.574;11.170;2023-06-26T08:09:41;26.30;83.90
13409;DHT22;6775;49.574;11.170;2023-06-26T08:12:09;26.40;82.20
13409;DHT22;6775;49.574;11.170;2023-06-26T08:14:39;26.50;82.60
13409;DHT22;6775;49.574;11.170;2023-06-26T08:17:07;26.60;82.00
13409;DHT22;6775;49.574;11.170;2023-06-26T08:19:36;26.70;80.30
13409;DHT22;6775;49.574;11.170;2023-06-26T08:22:05;26.80;79.30
13409;DHT22;6775;49.574;11.170;2023-06-26T08:24:33;26.90;80.20
13409;DHT22;6775;49.574;11.170;2023-06-26T08:27:00;27.00;80.50
13409;DHT22;6775;49.574;11.170;2023-06-26T08:29:28;27.00;77.70
13409;DHT22;6775;49.574;11.170;2023-06-26T08:31:56;27.10;76.40
13409;DHT22;6775;49.574;11.170;2023-06-26T08:34:24;27.10;76.00
13409;DHT22;6775;49.574;11.170;2023-06-26T08:36:53;27.20;75.50
13409;DHT22;6775;49.574;11.170;2023-06-26T08:39:21;27.20;76.20
13409;DHT22;6775;49.574;11.170;2023-06-26T08:41:49;27.30;76.50
13409;DHT22;6775;49.574;11.170;2023-06-26T08:44:17;27.50;76.70
13409;DHT22;6775;49.574;11.170;2023-06-26T08:46:45;27.70;77.10
13409;DHT22;6775;49.574;11.170;2023-06-26T08:49:17;27.80;76.30
13409;DHT22;6775;49.574;11.170;2023-06-26T08:51:51;27.90;74.60
13409;DHT22;6775;49.574;11.170;2023-06-26T08:54:25;28.10;75.00
13409;DHT22;6775;49.574;11.170;2023-06-26T08:56:56;28.30;74.20
13409;DHT22;6775;49.574;11.170;2023-06-26T08:59:25;28.50;73.20
13409;DHT22;6775;49.574;11.170;2023-06-26T09:01:52;28.60;71.40
13409;DHT22;6775;49.574;11.170;2023-06-26T09:04:21;28.60;71.60
13409;DHT22;6775;49.574;11.170;2023-06-26T09:06:49;28.70;71.20
13409;DHT22;6775;49.574;11.170;2023-06-26T09:09:17;28.80;69.80
13409;DHT22;6775;49.574;11.170;2023-06-26T09:11:46;28.80;68.50
13409;DHT22;6775;49.574;11.170;2023-06-26T09:14:14;28.90;69.90
13409;DHT22;6775;49.574;11.170;2023-06-26T09:16:42;29.00;70.60
13409;DHT22;6775;49.574;11.170;2023-06-26T09:19:11;29.20;67.10
13409;DHT22;6775;49.574;11.170;2023-06-26T09:21:39;29.10;67.00
13409;DHT22;6775;49.574;11.170;2023-06-26T09:24:08;29.20;66.70
13409;DHT22;6775;49.574;11.170;2023-06-26T09:26:37;29.20;66.60
13409;DHT22;6775;49.574;11.170;2023-06-26T09:29:07;29.40;67.00
13409;DHT22;6775;49.574;11.170;2023-06-26T09:31:36;29.50;67.10
13409;DHT22;6775;49.574;11.170;2023-06-26T09:34:08;29.70;67.60
13409;DHT22;6775;49.574;11.170;2023-06-26T09:36:36;29.90;68.50
13409;DHT22;6775;49.574;11.170;2023-06-26T09:39:07;30.00;67.10
13409;DHT22;6775;49.574;11.170;2023-06-26T09:41:38;30.00;66.00
13409;DHT22;6775;49.574;11.170;2023-06-26T09:44:10;30.00;66.00
13409;DHT22;6775;49.574;11.170;2023-06-26T09:46:38;30.10;66.10
13409;DHT22;6775;49.574;11.170;2023-06-26T09:49:08;30.10;65.90
13409;DHT22;6775;49.574;11.170;2023-06-26T09:51:38;30.20;65.90
13409;DHT22;6775;49.574;11.170;2023-06-26T09:54:07;30.30;65.10
13409;DHT22;6775;49.574;11.170;2023-06-26T09:56:36;30.40;65.10
13409;DHT22;6775;49.574;11.170;2023-06-26T09:59:05;30.40;64.40
13409;DHT22;6775;49.574;11.170;2023-06-26T10:01:39;30.40;63.60
13409;DHT22;6775;49.574;11.170;2023-06-26T10:04:07;30.40;63.80
13409;DHT22;6775;49.574;11.170;2023-06-26T10:06:37;30.40;64.00
13409;DHT22;6775;49.574;11.170;2023-06-26T10:09:07;30.40;63.30
13409;DHT22;6775;49.574;11.170;2023-06-26T10:11:38;30.50;63.40
13409;DHT22;6775;49.574;11.170;2023-06-26T10:14:09;30.60;62.80
13409;DHT22;6775;49.574;11.170;2023-06-26T10:16:46;30.50;60.90
13409;DHT22;6775;49.574;11.170;2023-06-26T10:19:18;30.60;60.70
13409;DHT22;6775;49.574;11.170;2023-06-26T10:21:52;30.70;61.90
13409;DHT22;6775;49.574;11.170;2023-06-26T10:24:21;30.80;62.00
13409;DHT22;6775;49.574;11.170;2023-06-26T10:26:52;31.00;63.10
13409;DHT22;6775;49.574;11.170;2023-06-26T10:29:23;31.30;62.30
13409;DHT22;6775;49.574;11.170;2023-06-26T10:31:56;31.40;60.70
13409;DHT22;6775;49.574;11.170;2023-06-26T10:34:29;31.60;60.40
13409;DHT22;6775;49.574;11.170;2023-06-26T10:37:01;31.60;59.70
13409;DHT22;6775;49.574;11.170;2023-06-26T10:39:46;31.80;59.60
13409;DHT22;6775;49.574;11.170;2023-06-26T10:42:15;31.80;58.90
13409;DHT22;6775;49.574;11.170;2023-06-26T10:44:44;31.90;58.90
13409;DHT22;6775;49.574;11.170;2023-06-26T10:47:29;31.80;56.90
13409;DHT22;6775;49.574;11.170;2023-06-26T10:50:16;31.90;58.20
13409;DHT22;6775;49.574;11.170;2023-06-26T10:53:11;31.90;57.60
13409;DHT22;6775;49.574;11.170;2023-06-26T10:55:48;32.00;58.50
13409;DHT22;6775;49.574;11.170;2023-06-26T10:58:33;32.20;57.90
13409;DHT22;6775;49.574;11.170;2023-06-26T11:01:22;32.30;57.80
13409;DHT22;6775;49.574;11.170;2023-06-26T11:04:05;32.30;57.20
13409;DHT22;6775;49.574;11.170;2023-06-26T11:06:35;32.40;57.20
13409;DHT22;6775;49.574;11.170;2023-06-26T11:09:09;32.30;56.40
13409;DHT22;6775;49.574;11.170;2023-06-26T11:11:57;32.20;56.40
13409;DHT22;6775;49.574;11.170;2023-06-26T11:14:34;32.20;56.40
13409;DHT22;6775;49.574;11.170;2023-06-26T11:17:03;32.30;55.50
13409;DHT22;6775;49.574;11.170;2023-06-26T11:19:33;32.20;54.30
13409;DHT22;6775;49.574;11.170;2023-06-26T11:22:04;32.30;54.50
13409;DHT22;6775;49.574;11.170;2023-06-26T11:24:33;32.30;54.50
13409;DHT22;6775;49.574;11.170;2023-06-26T11:27:02;32.30;53.70
13409;DHT22;6775;49.574;11.170;2023-06-26T11:29:32;32.30;53.80
13409;DHT22;6775;49.574;11.170;2023-06-26T11:32:03;32.40;53.00
13409;DHT22;6775;49.574;11.170;2023-06-26T11:34:34;32.50;52.30
13409;DHT22;6775;49.574;11.170;2023-06-26T11:37:02;32.50;51.80
13409;DHT22;6775;49.574;11.170;2023-06-26T11:39:30;32.50;51.60
13409;DHT22;6775;49.574;11.170;2023-06-26T11:41:59;32.50;52.40
13409;DHT22;6775;49.574;11.170;2023-06-26T11:44:29;32.60;52.10
13409;DHT22;6775;49.574;11.170;2023-06-26T11:46:58;32.70;51.70
13409;DHT22;6775;49.574;11.170;2023-06-26T11:49:26;32.70;51.80
13409;DHT22;6775;49.574;11.170;2023-06-26T11:51:57;32.80;51.90
13409;DHT22;6775;49.574;11.170;2023-06-26T11:54:26;32.80;50.60
13409;DHT22;6775;49.574;11.170;2023-06-26T11:56:55;32.70;50.90
13409;DHT22;6775;49.574;11.170;2023-06-26T11:59:33;32.70;51.50
13409;DHT22;6775;49.574;11.170;2023-06-26T12:02:05;32.80;51.50
13409;DHT22;6775;49.574;11.170;2023-06-26T12:04:34;32.90;51.20
13409;DHT22;6775;49.574;11.170;2023-06-26T12:07:06;32.90;50.80
13409;DHT22;6775;49.574;11.170;2023-06-26T12:09:38;32.90;50.80
13409;DHT22;6775;49.574;11.170;2023-06-26T12:12:08;32.90;50.00
13409;DHT22;6775;49.574;11.170;2023-06-26T12:14:36;32.90;50.30
13409;DHT22;6775;49.574;11.170;2023-06-26T12:17:09;32.90;49.90
13409;DHT22;6775;49.574;11.170;2023-06-26T12:19:37;32.70;49.30
13409;DHT22;6775;49.574;11.170;2023-06-26T12:22:10;32.70;49.60
13409;DHT22;6775;49.574;11.170;2023-06-26T12:24:39;32.70;50.10
13409;DHT22;6775;49.574;11.170;2023-06-26T12:27:11;32.80;50.10
13409;DHT22;6775;49.574;11.170;2023-06-26T12:29:40;32.90;50.50
13409;DHT22;6775;49.574;11.170;2023-06-26T12:32:09;32.90;50.00
13409;DHT22;6775;49.574;11.170;2023-06-26T12:34:38;33.10;50.00
13409;DHT22;6775;49.574;11.170;2023-06-26T12:37:10;33.20;49.50
13409;DHT22;6775;49.574;11.170;2023-06-26T12:39:48;33.30;48.70
13409;DHT22;6775;49.574;11.170;2023-06-26T12:42:17;33.20;48.80
13409;DHT22;6775;49.574;11.170;2023-06-26T12:44:46;33.30;49.30
13409;DHT22;6775;49.574;11.170;2023-06-26T12:47:15;33.30;49.20
13409;DHT22;6775;49.574;11.170;2023-06-26T12:49:45;33.40;48.70
13409;DHT22;6775;49.574;11.170;2023-06-26T12:52:15;33.40;48.30
13409;DHT22;6775;49.574;11.170;2023-06-26T12:54:43;33.50;48.50
13409;DHT22;6775;49.574;11.170;2023-06-26T12:57:13;33.50;49.20
13409;DHT22;6775;49.574;11.170;2023-06-26T12:59:41;33.60;48.80
13409;DHT22;6775;49.574;11.170;2023-06-26T13:02:10;33.60;49.10
13409;DHT22;6775;49.574;11.170;2023-06-26T13:04:39;33.80;49.30
13409;DHT22;6775;49.574;11.170;2023-06-26T13:07:08;33.80;48.90
13409;DHT22;6775;49.574;11.170;2023-06-26T13:09:37;33.80;48.50
13409;DHT22;6775;49.574;11.170;2023-06-26T13:12:06;33.80;47.60
13409;DHT22;6775;49.574;11.170;2023-06-26T13:14:35;33.70;48.00
13409;DHT22;6775;49.574;11.170;2023-06-26T13:17:05;33.40;48.20
13409;DHT22;6775;49.574;11.170;2023-06-26T13:19:35;33.20;48.70
13409;DHT22;6775;49.574;11.170;2023-06-26T13:22:03;33.10;49.30
13409;DHT22;6775;49.574;11.170;2023-06-26T13:24:31;33.10;49.70
13409;DHT22;6775;49.574;11.170;2023-06-26T13:27:00;33.10;49.40
13409;DHT22;6775;49.574;11.170;2023-06-26T13:29:28;33.20;49.60
13409;DHT22;6775;49.574;11.170;2023-06-26T13:31:56;33.20;49.80
13409;DHT22;6775;49.574;11.170;2023-06-26T13:34:28;33.20;49.80
13409;DHT22;6775;49.574;11.170;2023-06-26T13:36:56;33.20;49.90
13409;DHT22;6775;49.574;11.170;2023-06-26T13:39:26;33.30;50.30
13409;DHT22;6775;49.574;11.170;2023-06-26T13:41:54;33.20;50.60
13409;DHT22;6775;49.574;11.170;2023-06-26T13:44:23;33.30;50.90
13409;DHT22;6775;49.574;11.170;2023-06-26T13:47:04;33.40;51.00
13409;DHT22;6775;49.574;11.170;2023-06-26T13:49:35;33.40;50.70
13409;DHT22;6775;49.574;11.170;2023-06-26T13:52:04;33.30;50.90
13409;DHT22;6775;49.574;11.170;2023-06-26T13:54:34;33.10;51.20
13409;DHT22;6775;49.574;11.170;2023-06-26T13:57:02;33.00;51.80
13409;DHT22;6775;49.574;11.170;2023-06-26T13:59:33;32.80;52.30
13409;DHT22;6775;49.574;11.170;2023-06-26T14:02:01;32.70;52.60
13409;DHT22;6775;49.574;11.170;2023-06-26T14:04:29;32.60;52.80
13409;DHT22;6775;49.574;11.170;2023-06-26T14:06:57;32.50;53.40
13409;DHT22;6775;49.574;11.170;2023-06-26T14:09:25;32.60;54.00
13409;DHT22;6775;49.574;11.170;2023-06-26T14:11:53;32.40;54.20
13409;DHT22;6775;49.574;11.170;2023-06-26T14:14:21;32.20;54.40
13409;DHT22;6775;49.574;11.170;2023-06-26T14:16:50;32.00;54.50
13409;DHT22;6775;49.574;11.170;2023-06-26T14:19:18;31.80;55.00
13409;DHT22;6775;49.574;11.170;2023-06-26T14:21:46;31.60;55.50
13409;DHT22;6775;49.574;11.170;2023-06-26T14:24:14;31.70;55.80
13409;DHT22;6775;49.574;11.170;2023-06-26T14:26:41;31.90;55.90
13409;DHT22;6775;49.574;11.170;2023-06-26T14:29:09;32.10;56.00
13409;DHT22;6775;49.574;11.170;2023-06-26T14:31:37;32.20;55.60
13409;DHT22;6775;49.574;11.170;2023-06-26T14:34:06;32.30;55.50
13409;DHT22;6775;49.574;11.170;2023-06-26T14:36:35;32.40;55.50
13409;DHT22;6775;49.574;11.170;2023-06-26T14:39:04;32.30;55.50
13409;DHT22;6775;49.574;11.170;2023-06-26T14:41:32;32.30;55.50
13409;DHT22;6775;49.574;11.170;2023-06-26T14:44:01;32.30;55.90
13409;DHT22;6775;49.574;11.170;2023-06-26T14:46:29;32.30;56.00
13409;DHT22;6775;49.574;11.170;2023-06-26T14:48:58;32.30;56.30
13409;DHT22;6775;49.574;11.170;2023-06-26T14:51:27;32.10;56.80
13409;DHT22;6775;49.574;11.170;2023-06-26T14:53:55;31.90;57.30
13409;DHT22;6775;49.574;11.170;2023-06-26T14:56:23;31.70;57.50
13409;DHT22;6775;49.574;11.170;2023-06-26T14:58:51;31.40;57.90
13409;DHT22;6775;49.574;11.170;2023-06-26T15:01:20;31.20;58.00
13409;DHT22;6775;49.574;11.170;2023-06-26T15:03:48;31.20;58.50
13409;DHT22;6775;49.574;11.170;2023-06-26T15:06:16;31.20;58.70
13409;DHT22;6775;49.574;11.170;2023-06-26T15:08:46;31.20;58.80
13409;DHT22;6775;49.574;11.170;2023-06-26T15:11:14;31.10;59.30
13409;DHT22;6775;49.574;11.170;2023-06-26T15:13:41;31.00;59.40
13409;DHT22;6775;49.574;11.170;2023-06-26T15:16:09;31.00;59.30
13409;DHT22;6775;49.574;11.170;2023-06-26T15:18:37;30.90;59.60
13409;DHT22;6775;49.574;11.170;2023-06-26T15:21:05;30.80;59.70
13409;DHT22;6775;49.574;11.170;2023-06-26T15:23:33;30.70;59.70
13409;DHT22;6775;49.574;11.170;2023-06-26T15:26:02;30.60;59.80
13409;DHT22;6775;49.574;11.170;2023-06-26T15:28:30;30.40;60.00
13409;DHT22;6775;49.574;11.170;2023-06-26T15:30:59;30.30;60.60
13409;DHT22;6775;49.574;11.170;2023-06-26T15:33:27;30.20;62.20
13409;DHT22;6775;49.574;11.170;2023-06-26T15:35:55;30.00;63.80
13409;DHT22;6775;49.574;11.170;2023-06-26T15:38:23;29.90;65.00
13409;DHT22;6775;49.574;11.170;2023-06-26T15:40:51;29.70;66.10
13409;DHT22;6775;49.574;11.170;2023-06-26T15:43:20;29.60;66.60